aviador You're here:

LFMN Decoded Metar

NICE in FRANCE
Report Time2017-09-23 08:30:00
UTC Time2017-09-23 09:05:22
Flight Rules vfr VFR
Wind080° at 08 kt
W.Decomp.*RWY 04: 6.2 kt HW 5.0 kt RCW
W.Rank080° ranks 5
Current wind is below 080° avg. (11.4)
Visibility9999 m
Phenomena:N/A
Clouds:Scattered 010 Hf
Scattered 025 Hf
Overcast 033 Hf
Expected CloudBase > 400 ft AGL from Temp-Dew spread
Ceiling3,300 ft
Temp18°C (ISA +3)
Dew Point17°C (94% RH)
AAT17.5°C
QNH1021 hPa
Density Alt381 ft
Elevation33 ft
Report Wrong Elevation
Raw Report
LFMN 230830Z 08008KT 9999 SCT010 SCT025 OVC033 18/17 Q1021
NOSIG=

Extra information for LFMN:More info

Metar Taf Metar & Taf Last 4 Metars F.Rules Stats Wind Profile Meteogram Temp Stats Airport Information Weather charts Add Link Nearby VenuesMetar ALERT Operation Metar Decoded Social comments